Time;durP1;ratioP1;P1;durP2;ratioP2;P2;SDS_P1;SDS_P2;PMS_P1;PMS_P2;Temp;Humidity;BMP_temperature;BMP_pressure;BME280_temperature;BME280_humidity;BME280_pressure;Samples;Min_cycle;Max_cycle;Signal;HPM_P1;HPM_P2
2022/12/26 00:01:34;;;;;;;25.75;12.23;;;;;;;;;;5037029;28;20028;-77
2022/12/26 00:04:00;;;;;;;26.58;12.48;;;;;;;;;;5053361;28;20029;-77
2022/12/26 00:06:26;;;;;;;22.52;12.27;;;;;;;;;;5053991;28;20102;-78
2022/12/26 00:08:52;;;;;;;32.15;13.45;;;;;;;;;;5054877;28;20037;-77
2022/12/26 00:11:17;;;;;;;24.83;12.43;;;;;;;;;;5054862;28;20029;-77
2022/12/26 00:13:43;;;;;;;27.65;13.25;;;;;;;;;;5037190;28;20084;-77
2022/12/26 00:16:10;;;;;;;28.75;12.98;;;;;;;;;;5053555;28;20066;-77
2022/12/26 00:18:35;;;;;;;30.20;13.95;;;;;;;;;;5053642;28;20043;-77
2022/12/26 00:21:01;;;;;;;28.38;13.15;;;;;;;;;;5036563;28;20466;-77
2022/12/26 00:23:26;;;;;;;25.38;13.65;;;;;;;;;;5053641;28;20043;-78
2022/12/26 00:25:52;;;;;;;39.85;14.20;;;;;;;;;;5053529;28;20369;-78
2022/12/26 00:28:17;;;;;;;31.40;14.77;;;;;;;;;;5054420;28;20040;-78
2022/12/26 00:30:42;;;;;;;30.30;14.23;;;;;;;;;;5054391;28;20039;-78
2022/12/26 00:33:08;;;;;;;31.35;14.55;;;;;;;;;;5054595;28;20052;-78
2022/12/26 00:35:33;;;;;;;30.73;13.88;;;;;;;;;;5036580;28;20041;-77
2022/12/26 00:37:59;;;;;;;29.50;13.63;;;;;;;;;;5054555;28;20091;-77
2022/12/26 00:40:24;;;;;;;34.67;16.33;;;;;;;;;;5054039;28;20033;-78
2022/12/26 00:42:50;;;;;;;32.45;15.88;;;;;;;;;;5054165;28;20060;-77
2022/12/26 00:45:15;;;;;;;40.90;18.50;;;;;;;;;;5036410;28;20025;-77
2022/12/26 00:47:40;;;;;;;56.60;22.38;;;;;;;;;;5054154;28;20040;-77
2022/12/26 00:50:06;;;;;;;55.13;22.52;;;;;;;;;;5054357;28;20040;-77
2022/12/26 00:52:32;;;;;;;62.50;25.52;;;;;;;;;;5054596;28;20495;-77
2022/12/26 00:54:57;;;;;;;48.90;24.77;;;;;;;;;;5036393;28;20434;-77
2022/12/26 00:57:22;;;;;;;37.17;18.80;;;;;;;;;;5053995;28;20366;-78
2022/12/26 00:59:48;;;;;;;36.42;18.30;;;;;;;;;;5054371;28;20370;-77
2022/12/26 01:04:57;;;;;;;37.63;18.98;;;;;;;;;;5054028;28;20175;-77
2022/12/26 01:07:23;;;;;;;35.60;19.02;;;;;;;;;;5053814;28;22392;-75
2022/12/26 01:09:48;;;;;;;42.50;19.85;;;;;;;;;;5036443;28;20347;-76
2022/12/26 01:12:14;;;;;;;46.05;21.65;;;;;;;;;;5052677;28;20318;-77
2022/12/26 01:14:39;;;;;;;35.95;17.42;;;;;;;;;;5035785;28;20112;-77
2022/12/26 01:17:05;;;;;;;37.05;16.42;;;;;;;;;;5054396;28;20028;-77
2022/12/26 01:19:30;;;;;;;42.15;16.92;;;;;;;;;;5053726;28;20031;-76
2022/12/26 01:21:55;;;;;;;35.88;17.38;;;;;;;;;;5053804;28;20031;-77
2022/12/26 01:24:21;;;;;;;34.55;16.65;;;;;;;;;;5036251;28;20035;-77
2022/12/26 01:26:46;;;;;;;32.92;15.73;;;;;;;;;;5053979;28;20033;-78
2022/12/26 01:29:12;;;;;;;39.92;18.58;;;;;;;;;;5053645;28;20037;-77
2022/12/26 01:31:37;;;;;;;38.03;18.88;;;;;;;;;;5053921;28;20132;-77
2022/12/26 01:34:03;;;;;;;33.25;16.42;;;;;;;;;;5053887;28;20472;-77
2022/12/26 01:36:28;;;;;;;34.65;14.55;;;;;;;;;;5052401;28;20032;-77
2022/12/26 01:38:54;;;;;;;27.45;13.55;;;;;;;;;;5053810;28;20091;-77
2022/12/26 01:41:19;;;;;;;33.80;14.25;;;;;;;;;;5035993;28;20029;-77
2022/12/26 01:43:59;;;;;;;29.38;13.77;;;;;;;;;;5035862;28;20044;-76
2022/12/26 01:46:27;;;;;;;28.05;14.48;;;;;;;;;;5035718;28;20035;-76
2022/12/26 01:48:52;;;;;;;28.75;15.15;;;;;;;;;;5035941;28;20041;-77
2022/12/26 01:51:36;;;;;;;39.55;16.00;;;;;;;;;;5053771;28;20449;-77
2022/12/26 01:54:02;;;;;;;35.75;16.60;;;;;;;;;;5041392;28;20037;-77
2022/12/26 01:56:31;;;;;;;33.85;16.88;;;;;;;;;;5057255;28;20041;-77
2022/12/26 01:59:01;;;;;;;39.50;19.17;;;;;;;;;;5039311;28;20453;-76
2022/12/26 02:01:28;;;;;;;57.58;27.02;;;;;;;;;;5056063;28;20119;-76
2022/12/26 02:06:40;;;;;;;62.88;28.02;;;;;;;;;;5056246;28;20040;-76
2022/12/26 02:09:05;;;;;;;70.63;32.75;;;;;;;;;;5039655;28;20048;-76
2022/12/26 02:11:33;;;;;;;73.57;33.13;;;;;;;;;;5039459;28;20486;-76
2022/12/26 02:13:59;;;;;;;73.68;32.30;;;;;;;;;;5040197;28;20025;-76
2022/12/26 02:16:25;;;;;;;65.43;31.58;;;;;;;;;;5040356;28;20423;-76
2022/12/26 02:18:50;;;;;;;71.97;31.83;;;;;;;;;;5044333;28;20029;-76
2022/12/26 02:21:31;;;;;;;62.97;30.65;;;;;;;;;;5064238;28;20028;-78
2022/12/26 02:23:59;;;;;;;;;;;;;;;;;;5059678;28;20032;-77
2022/12/26 02:26:52;;;;;;;61.63;27.50;;;;;;;;;;5057145;28;20261;-77
2022/12/26 02:29:26;;;;;;;66.15;30.38;;;;;;;;;;5056204;28;20052;-76
2022/12/26 02:32:01;;;;;;;66.95;31.48;;;;;;;;;;5056836;28;20040;-77
2022/12/26 02:34:56;;;;;;;69.13;32.78;;;;;;;;;;5039472;28;20033;-77
2022/12/26 02:37:33;;;;;;;69.28;32.22;;;;;;;;;;5010301;28;20111;-77
2022/12/26 02:40:23;;;;;;;69.47;33.03;;;;;;;;;;5038796;28;20438;-77
2022/12/26 02:43:15;;;;;;;74.18;34.88;;;;;;;;;;5027057;28;20136;-77
2022/12/26 02:49:05;;;;;;;69.03;35.17;;;;;;;;;;5042332;28;20481;-77
2022/12/26 03:14:29;;;;;;;74.28;36.28;;;;;;;;;;5040692;28;20489;-77
2022/12/26 03:17:21;;;;;;;82.32;39.00;;;;;;;;;;5038051;28;20070;-77
2022/12/26 03:19:58;;;;;;;85.63;40.15;;;;;;;;;;5055106;28;20036;-77
2022/12/26 03:22:31;;;;;;;80.68;39.88;;;;;;;;;;5039154;28;20037;-78
2022/12/26 03:27:42;;;;;;;86.15;42.33;;;;;;;;;;5040370;28;20044;-77
2022/12/26 03:32:54;;;;;;;88.32;41.22;;;;;;;;;;5055442;28;20032;-77
2022/12/26 03:35:20;;;;;;;90.07;40.55;;;;;;;;;;5037762;28;20111;-77
2022/12/26 03:38:07;;;;;;;94.65;44.05;;;;;;;;;;5037646;28;20124;-77
2022/12/26 04:20:59;;;;;;;39.55;19.92;;;;;;;;;;5039867;28;20032;-77
2022/12/26 04:46:07;;;;;;;82.85;37.50;;;;;;;;;;5053130;28;20412;-77
2022/12/26 04:51:17;;;;;;;78.93;36.40;;;;;;;;;;5039032;28;20047;-77
2022/12/26 04:53:42;;;;;;;71.57;35.47;;;;;;;;;;5052823;28;20456;-77
2022/12/26 04:56:08;;;;;;;72.72;36.22;;;;;;;;;;5036027;28;20456;-77
2022/12/26 04:58:34;;;;;;;79.53;38.15;;;;;;;;;;5053002;28;20029;-78
2022/12/26 05:11:56;;;;;;;72.88;34.50;;;;;;;;;;5038680;28;20027;-78
2022/12/26 05:14:22;;;;;;;72.82;35.15;;;;;;;;;;5053963;28;20501;-78
2022/12/26 05:30:27;;;;;;;94.10;45.60;;;;;;;;;;5056531;28;20381;-78
2022/12/26 05:35:36;;;;;;;93.20;50.67;;;;;;;;;;5057641;28;20028;-78
2022/12/26 05:38:02;;;;;;;99.18;54.65;;;;;;;;;;5039566;28;20350;-79
2022/12/26 05:40:27;;;;;;;106.60;54.72;;;;;;;;;;5056425;28;20079;-78
2022/12/26 05:42:53;;;;;;;105.65;50.22;;;;;;;;;;5039728;28;20029;-78
2022/12/26 05:45:18;;;;;;;95.93;49.88;;;;;;;;;;5039957;28;20037;-78
2022/12/26 05:47:44;;;;;;;92.15;47.90;;;;;;;;;;5039639;28;20489;-78
2022/12/26 05:50:09;;;;;;;100.18;48.72;;;;;;;;;;5057374;28;20052;-78
2022/12/26 05:52:35;;;;;;;92.50;48.67;;;;;;;;;;5039783;28;20033;-78
2022/12/26 05:55:04;;;;;;;89.63;45.50;;;;;;;;;;5058193;28;20040;-79
2022/12/26 05:57:29;;;;;;;88.10;45.67;;;;;;;;;;5039817;28;20021;-78
2022/12/26 05:59:54;;;;;;;88.13;42.60;;;;;;;;;;5039429;28;20040;-78
2022/12/26 06:02:20;;;;;;;91.38;43.20;;;;;;;;;;5057995;28;20393;-77
2022/12/26 06:04:45;;;;;;;86.13;44.10;;;;;;;;;;5039264;28;20509;-77
2022/12/26 06:07:11;;;;;;;110.18;50.65;;;;;;;;;;5039228;28;20025;-77
2022/12/26 06:09:36;;;;;;;122.07;60.55;;;;;;;;;;5056885;28;20462;-77
2022/12/26 06:12:02;;;;;;;112.75;57.03;;;;;;;;;;5057099;28;20461;-77
2022/12/26 06:14:27;;;;;;;133.90;67.95;;;;;;;;;;5056027;28;20064;-77
2022/12/26 06:16:53;;;;;;;144.82;76.13;;;;;;;;;;5057127;28;20159;-76
2022/12/26 06:19:18;;;;;;;139.48;75.63;;;;;;;;;;5038578;28;20076;-77
2022/12/26 06:21:43;;;;;;;138.00;71.50;;;;;;;;;;5072361;28;20467;-77
2022/12/26 06:24:09;;;;;;;173.85;87.15;;;;;;;;;;5056700;28;20398;-77
2022/12/26 06:26:35;;;;;;;159.80;82.28;;;;;;;;;;5055562;28;20036;-77
2022/12/26 06:29:00;;;;;;;191.70;95.32;;;;;;;;;;5052362;28;20055;-78
2022/12/26 06:31:25;;;;;;;195.23;93.90;;;;;;;;;;5036946;28;20033;-78
2022/12/26 06:33:55;;;;;;;160.70;80.47;;;;;;;;;;5036327;28;20108;-78
2022/12/26 06:36:21;;;;;;;185.07;89.20;;;;;;;;;;5035549;28;20104;-77
2022/12/26 06:38:47;;;;;;;175.15;82.20;;;;;;;;;;5034891;28;20036;-77
2022/12/26 06:41:14;;;;;;;159.07;76.25;;;;;;;;;;5036795;28;20021;-78
2022/12/26 06:43:40;;;;;;;150.90;73.55;;;;;;;;;;5002570;28;20030;-77
2022/12/26 06:46:06;;;;;;;105.20;51.42;;;;;;;;;;5019149;28;20037;-78
2022/12/26 06:48:31;;;;;;;114.55;55.35;;;;;;;;;;5002431;28;20460;-78
2022/12/26 06:50:57;;;;;;;100.80;48.63;;;;;;;;;;5018504;28;20446;-79
2022/12/26 06:53:23;;;;;;;102.03;51.53;;;;;;;;;;5036408;28;20029;-77
2022/12/26 06:55:49;;;;;;;101.85;53.42;;;;;;;;;;5036884;28;20347;-77
2022/12/26 06:58:15;;;;;;;110.68;54.30;;;;;;;;;;5019176;28;20049;-77
2022/12/26 07:00:40;;;;;;;105.97;53.10;;;;;;;;;;5002216;28;20081;-77
2022/12/26 07:03:05;;;;;;;121.75;61.10;;;;;;;;;;5035872;28;20446;-77
2022/12/26 07:05:31;;;;;;;113.78;56.28;;;;;;;;;;5036627;28;20554;-78
2022/12/26 07:07:56;;;;;;;105.93;52.45;;;;;;;;;;5036275;28;20494;-78
2022/12/26 07:10:22;;;;;;;110.53;55.03;;;;;;;;;;5020623;28;20393;-78
2022/12/26 07:12:50;;;;;;;101.53;50.33;;;;;;;;;;5019651;28;20022;-78
2022/12/26 07:15:16;;;;;;;111.60;53.30;;;;;;;;;;5039353;28;20036;-78
2022/12/26 07:17:41;;;;;;;101.80;50.42;;;;;;;;;;5025249;28;20041;-78
2022/12/26 07:20:09;;;;;;;107.80;55.50;;;;;;;;;;5041353;28;20480;-78
2022/12/26 07:22:35;;;;;;;114.30;57.95;;;;;;;;;;5020697;28;20029;-78
2022/12/26 07:25:00;;;;;;;120.88;58.33;;;;;;;;;;5019456;28;20041;-79
2022/12/26 07:27:26;;;;;;;119.90;56.72;;;;;;;;;;5037723;28;20051;-78
2022/12/26 07:29:51;;;;;;;110.85;53.97;;;;;;;;;;5037166;28;20049;-79
2022/12/26 07:32:17;;;;;;;94.95;49.50;;;;;;;;;;5020803;28;20052;-78
2022/12/26 07:34:42;;;;;;;105.93;50.53;;;;;;;;;;5022742;28;20037;-78
2022/12/26 07:37:07;;;;;;;93.82;47.33;;;;;;;;;;5041397;28;20033;-78
2022/12/26 07:39:34;;;;;;;79.85;41.75;;;;;;;;;;5004694;28;20041;-77
2022/12/26 07:42:00;;;;;;;82.45;42.20;;;;;;;;;;5017874;28;20120;-78
2022/12/26 07:44:26;;;;;;;75.07;40.25;;;;;;;;;;5035599;28;20112;-77
2022/12/26 07:46:52;;;;;;;87.45;44.28;;;;;;;;;;5034994;28;20034;-78
2022/12/26 07:49:17;;;;;;;86.90;43.50;;;;;;;;;;5017509;28;20440;-77
2022/12/26 07:51:42;;;;;;;85.43;43.17;;;;;;;;;;5016631;28;20045;-78
2022/12/26 07:54:08;;;;;;;92.90;49.10;;;;;;;;;;5035466;28;20037;-78
2022/12/26 07:56:34;;;;;;;78.53;41.13;;;;;;;;;;5017363;28;20072;-76
2022/12/26 07:58:59;;;;;;;78.43;39.50;;;;;;;;;;5034916;28;20041;-77
2022/12/26 08:01:25;;;;;;;74.07;37.92;;;;;;;;;;5017082;28;20029;-77
2022/12/26 08:03:50;;;;;;;67.20;36.80;;;;;;;;;;5034927;28;20088;-78
2022/12/26 08:06:17;;;;;;;63.78;33.03;;;;;;;;;;5017486;28;20100;-77
2022/12/26 08:08:42;;;;;;;61.13;32.42;;;;;;;;;;5034662;28;20033;-77
2022/12/26 08:11:07;;;;;;;75.28;35.72;;;;;;;;;;5017225;28;20021;-77
2022/12/26 08:13:33;;;;;;;78.13;39.05;;;;;;;;;;5035019;28;20036;-77
2022/12/26 08:16:02;;;;;;;75.30;40.13;;;;;;;;;;5033992;28;20357;-77
2022/12/26 08:18:28;;;;;;;97.97;51.50;;;;;;;;;;5017703;28;20037;-77
2022/12/26 08:20:53;;;;;;;96.20;48.42;;;;;;;;;;5017210;28;20032;-77
2022/12/26 08:23:19;;;;;;;115.18;57.47;;;;;;;;;;5034881;28;20059;-77
2022/12/26 08:25:44;;;;;;;102.75;52.33;;;;;;;;;;5034875;28;20450;-77
2022/12/26 08:28:10;;;;;;;114.40;55.88;;;;;;;;;;5017064;28;20037;-76
2022/12/26 08:30:38;;;;;;;95.55;46.75;;;;;;;;;;5016854;28;20478;-77
2022/12/26 08:33:04;;;;;;;94.07;47.65;;;;;;;;;;5017005;28;20374;-77
2022/12/26 08:35:29;;;;;;;84.57;42.50;;;;;;;;;;5016762;28;20041;-77
2022/12/26 08:37:55;;;;;;;91.97;45.10;;;;;;;;;;5034715;28;20041;-77
2022/12/26 08:40:20;;;;;;;80.25;41.22;;;;;;;;;;5034567;28;20108;-77
2022/12/26 08:42:46;;;;;;;74.47;37.83;;;;;;;;;;5034370;28;20033;-77
2022/12/26 08:45:11;;;;;;;66.82;32.88;;;;;;;;;;5017192;28;20039;-77
2022/12/26 08:47:36;;;;;;;61.38;33.97;;;;;;;;;;5034609;28;20133;-78
2022/12/26 08:50:02;;;;;;;66.68;33.05;;;;;;;;;;5016732;28;20049;-77
2022/12/26 08:52:27;;;;;;;61.70;31.92;;;;;;;;;;5016812;28;20041;-76
2022/12/26 08:54:53;;;;;;;59.50;27.80;;;;;;;;;;5016850;28;20060;-77
2022/12/26 08:57:18;;;;;;;48.97;26.63;;;;;;;;;;5034353;28;20454;-77
2022/12/26 08:59:44;;;;;;;55.00;25.13;;;;;;;;;;5016371;28;20462;-77
2022/12/26 09:02:10;;;;;;;59.47;29.17;;;;;;;;;;5033930;28;20465;-77
2022/12/26 09:04:36;;;;;;;52.65;26.23;;;;;;;;;;4999653;28;20041;-76
2022/12/26 09:07:01;;;;;;;52.15;27.70;;;;;;;;;;5033114;28;20029;-76
2022/12/26 09:09:27;;;;;;;51.53;27.67;;;;;;;;;;5033808;28;20117;-76
2022/12/26 09:11:53;;;;;;;44.20;24.20;;;;;;;;;;5016308;28;20119;-77
2022/12/26 09:14:19;;;;;;;46.05;22.45;;;;;;;;;;5016203;28;20038;-77
2022/12/26 09:16:45;;;;;;;47.60;23.05;;;;;;;;;;5034325;28;20029;-77
2022/12/26 09:19:12;;;;;;;40.90;21.67;;;;;;;;;;5034134;28;20048;-77
2022/12/26 09:21:37;;;;;;;40.40;20.67;;;;;;;;;;5034044;28;20037;-77
2022/12/26 09:24:05;;;;;;;44.85;20.77;;;;;;;;;;5034069;28;20088;-77
2022/12/26 09:26:30;;;;;;;43.72;21.50;;;;;;;;;;5033990;28;20032;-77
2022/12/26 09:28:56;;;;;;;41.47;21.27;;;;;;;;;;5019458;28;20040;-77
2022/12/26 09:31:23;;;;;;;36.28;20.40;;;;;;;;;;5052994;28;20032;-77
2022/12/26 09:33:49;;;;;;;39.72;20.35;;;;;;;;;;5053835;28;20040;-77
2022/12/26 09:36:16;;;;;;;44.67;20.48;;;;;;;;;;5036051;28;20032;-77
2022/12/26 09:38:42;;;;;;;38.90;20.27;;;;;;;;;;5036203;28;20033;-77
2022/12/26 09:41:32;;;;;;;41.00;21.58;;;;;;;;;;5053703;28;20027;-77
2022/12/26 09:44:14;;;;;;;39.17;20.55;;;;;;;;;;5053616;28;20037;-77
2022/12/26 09:46:46;;;;;;;41.85;21.77;;;;;;;;;;5036802;28;20442;-77
2022/12/26 09:49:11;;;;;;;41.30;22.73;;;;;;;;;;5035739;28;20048;-77
2022/12/26 09:51:37;;;;;;;48.80;25.75;;;;;;;;;;5053646;28;20090;-77
2022/12/26 09:54:04;;;;;;;42.85;23.45;;;;;;;;;;5052079;28;20029;-77
2022/12/26 09:56:29;;;;;;;43.35;24.00;;;;;;;;;;5052705;28;20139;-77
2022/12/26 09:59:00;;;;;;;47.00;25.63;;;;;;;;;;5018721;28;20037;-78
2022/12/26 10:01:28;;;;;;;45.63;25.52;;;;;;;;;;5036061;28;20025;-77
2022/12/26 10:03:55;;;;;;;50.85;26.52;;;;;;;;;;5052277;28;20032;-77
2022/12/26 10:06:25;;;;;;;45.63;24.02;;;;;;;;;;5053966;28;20087;-77
2022/12/26 10:09:04;;;;;;;49.88;26.38;;;;;;;;;;5036040;28;20037;-77
2022/12/26 10:11:50;;;;;;;46.45;25.75;;;;;;;;;;5019282;28;20037;-76
2022/12/26 10:14:25;;;;;;;48.47;26.92;;;;;;;;;;5039768;28;20025;-77
2022/12/26 10:16:50;;;;;;;52.10;28.33;;;;;;;;;;5056935;28;20040;-77
2022/12/26 10:19:47;;;;;;;54.10;28.70;;;;;;;;;;5057228;28;20032;-77
2022/12/26 10:22:23;;;;;;;47.67;26.63;;;;;;;;;;5040631;28;20385;-77
2022/12/26 10:24:49;;;;;;;59.83;29.23;;;;;;;;;;5038924;28;20450;-76
2022/12/26 10:27:15;;;;;;;58.38;28.55;;;;;;;;;;5055460;28;20021;-77
2022/12/26 10:29:47;;;;;;;65.82;30.63;;;;;;;;;;5045941;28;20120;-76
2022/12/26 10:32:52;;;;;;;72.72;36.00;;;;;;;;;;5019963;28;20554;-77
2022/12/26 10:35:22;;;;;;;62.40;32.90;;;;;;;;;;5027298;28;20040;-77
2022/12/26 10:37:50;;;;;;;57.53;30.27;;;;;;;;;;5036883;28;20501;-77
2022/12/26 10:40:21;;;;;;;54.70;30.70;;;;;;;;;;5019418;28;20093;-76
2022/12/26 10:42:51;;;;;;;54.63;29.50;;;;;;;;;;5035718;28;20033;-77
2022/12/26 10:45:33;;;;;;;64.03;32.78;;;;;;;;;;5018327;28;20052;-77
2022/12/26 10:47:59;;;;;;;63.20;31.20;;;;;;;;;;5020982;28;20124;-77
2022/12/26 10:50:29;;;;;;;62.03;33.05;;;;;;;;;;5019108;28;20092;-78
2022/12/26 10:52:57;;;;;;;68.30;34.80;;;;;;;;;;5036663;28;20115;-78
2022/12/26 10:55:28;;;;;;;64.38;33.90;;;;;;;;;;5018584;28;20060;-77
2022/12/26 10:57:53;;;;;;;;;;;;;;;;;;5035900;28;20029;-77
2022/12/26 11:00:22;;;;;;;60.80;32.33;;;;;;;;;;5018492;28;19964;-76
2022/12/26 11:03:01;;;;;;;68.43;33.97;;;;;;;;;;5018800;28;20033;-77
2022/12/26 11:05:27;;;;;;;61.22;32.08;;;;;;;;;;5036357;28;20022;-76
2022/12/26 11:07:54;;;;;;;57.00;31.23;;;;;;;;;;5034816;28;20044;-77
2022/12/26 11:10:25;;;;;;;62.28;33.22;;;;;;;;;;5034939;28;20029;-77
2022/12/26 11:12:54;;;;;;;;;;;;;;;;;;5035654;28;20108;-78
2022/12/26 11:15:30;;;;;;;61.22;32.40;;;;;;;;;;5002407;28;19988;-78
2022/12/26 11:18:14;;;;;;;59.30;30.40;;;;;;;;;;5034761;28;20080;-76
2022/12/26 11:20:40;;;;;;;64.50;32.03;;;;;;;;;;5020037;28;20442;-77
2022/12/26 11:23:30;;;;;;;59.72;32.35;;;;;;;;;;5001649;28;20037;-78
2022/12/26 11:25:57;;;;;;;67.28;33.25;;;;;;;;;;5035974;28;20053;-78
2022/12/26 11:28:27;;;;;;;70.35;35.55;;;;;;;;;;5018340;28;20450;-78
2022/12/26 11:30:52;;;;;;;;;;;;;;;;;;5037669;28;20036;-75
2022/12/26 11:33:29;;;;;;;59.35;31.05;;;;;;;;;;5071073;28;19920;-77
2022/12/26 11:36:18;;;;;;;68.20;35.22;;;;;;;;;;5037709;28;20029;-77
2022/12/26 11:38:47;;;;;;;67.22;33.28;;;;;;;;;;5022479;28;20102;-77
2022/12/26 11:41:31;;;;;;;63.87;31.47;;;;;;;;;;5037676;28;20029;-77
2022/12/26 11:44:09;;;;;;;54.33;28.42;;;;;;;;;;5055727;28;20040;-77
2022/12/26 11:46:41;;;;;;;44.47;24.52;;;;;;;;;;5055607;28;20037;-77
2022/12/26 11:49:13;;;;;;;43.70;23.55;;;;;;;;;;5037570;28;20041;-77
2022/12/26 11:51:40;;;;;;;45.50;22.35;;;;;;;;;;5054207;28;20032;-77
2022/12/26 11:54:23;;;;;;;44.28;23.52;;;;;;;;;;5054079;28;20037;-78
2022/12/26 11:56:48;;;;;;;42.70;21.55;;;;;;;;;;5055372;28;20025;-78
2022/12/26 11:59:19;;;;;;;45.17;23.92;;;;;;;;;;5037334;28;20036;-77
2022/12/26 12:01:45;;;;;;;45.95;23.70;;;;;;;;;;5054029;28;20111;-78
2022/12/26 12:04:10;;;;;;;47.10;22.98;;;;;;;;;;5037261;28;20463;-78
2022/12/26 12:06:59;;;;;;;51.92;26.27;;;;;;;;;;5054963;28;20028;-78
2022/12/26 12:09:57;;;;;;;48.45;24.55;;;;;;;;;;5053644;28;20119;-77
2022/12/26 12:12:28;;;;;;;52.13;25.58;;;;;;;;;;5017345;28;20091;-78
2022/12/26 12:15:18;;;;;;;53.15;27.02;;;;;;;;;;5055111;28;20037;-77
2022/12/26 12:17:57;;;;;;;52.15;27.42;;;;;;;;;;5037624;28;20029;-79
2022/12/26 12:20:37;;;;;;;60.15;29.55;;;;;;;;;;5037555;28;20115;-78
2022/12/26 12:23:27;;;;;;;63.10;33.35;;;;;;;;;;5054698;28;20025;-78
2022/12/26 12:26:16;;;;;;;49.47;27.48;;;;;;;;;;5054813;28;20028;-77
2022/12/26 12:29:03;;;;;;;43.33;22.23;;;;;;;;;;5068367;28;20032;-78
2022/12/26 12:31:47;;;;;;;38.97;21.42;;;;;;;;;;5035118;28;20069;-78
2022/12/26 12:34:18;;;;;;;42.42;22.40;;;;;;;;;;5034617;28;20037;-78
2022/12/26 12:36:55;;;;;;;39.00;20.65;;;;;;;;;;5034323;28;20120;-78
2022/12/26 12:39:42;;;;;;;38.50;21.73;;;;;;;;;;5017804;28;20086;-77
2022/12/26 12:42:17;;;;;;;40.25;21.88;;;;;;;;;;5023677;28;20033;-77
2022/12/26 12:45:04;;;;;;;41.83;22.02;;;;;;;;;;5019217;28;20044;-77
2022/12/26 12:47:42;;;;;;;40.10;22.05;;;;;;;;;;5034554;28;20030;-78
2022/12/26 12:50:20;;;;;;;45.47;25.00;;;;;;;;;;5017107;28;20025;-76
2022/12/26 12:53:20;;;;;;;43.47;23.35;;;;;;;;;;5033936;28;20091;-77
2022/12/26 12:55:46;;;;;;;46.70;23.40;;;;;;;;;;5013636;28;20093;-78
2022/12/26 12:58:40;;;;;;;44.97;24.88;;;;;;;;;;5034265;28;20467;-78
2022/12/26 13:01:32;;;;;;;51.22;27.38;;;;;;;;;;5034167;28;20026;-78
2022/12/26 13:04:15;;;;;;;50.15;26.00;;;;;;;;;;5019716;28;20116;-77
2022/12/26 13:06:58;;;;;;;47.28;24.77;;;;;;;;;;5000824;28;20034;-77
2022/12/26 13:09:31;;;;;;;52.30;28.92;;;;;;;;;;5018461;28;20033;-78
2022/12/26 13:12:04;;;;;;;63.92;30.30;;;;;;;;;;5033238;28;20099;-78
2022/12/26 13:14:35;;;;;;;58.55;27.67;;;;;;;;;;5032635;28;20100;-78
2022/12/26 13:17:09;;;;;;;53.70;26.90;;;;;;;;;;5017416;28;20042;-78
2022/12/26 13:19:47;;;;;;;52.58;25.75;;;;;;;;;;5016844;28;20088;-79
2022/12/26 13:22:15;;;;;;;49.40;26.08;;;;;;;;;;5016684;28;20037;-77
2022/12/26 13:24:47;;;;;;;57.28;28.10;;;;;;;;;;5033071;28;20073;-77
2022/12/26 13:27:34;;;;;;;48.65;25.50;;;;;;;;;;5016560;28;20042;-78
2022/12/26 13:29:59;;;;;;;50.13;25.58;;;;;;;;;;5016829;28;20096;-78
2022/12/26 13:32:26;;;;;;;49.67;25.17;;;;;;;;;;5016477;28;20467;-77
2022/12/26 13:34:53;;;;;;;52.38;25.67;;;;;;;;;;5032579;28;20025;-78
2022/12/26 13:37:31;;;;;;;43.88;23.67;;;;;;;;;;5016719;28;20084;-77
2022/12/26 13:39:57;;;;;;;44.45;24.00;;;;;;;;;;5033920;28;20072;-77
2022/12/26 13:45:34;;;;;;;47.13;23.02;;;;;;;;;;5020266;28;20367;-76
2022/12/26 13:48:01;;;;;;;51.10;24.90;;;;;;;;;;5033640;28;20354;-78
2022/12/26 13:50:55;;;;;;;48.55;24.52;;;;;;;;;;5036237;28;20033;-77
2022/12/26 13:53:23;;;;;;;76.15;36.63;;;;;;;;;;5037726;28;20107;-77
2022/12/26 13:55:53;;;;;;;71.97;34.65;;;;;;;;;;5037304;28;20080;-76
2022/12/26 13:58:26;;;;;;;54.00;25.83;;;;;;;;;;5003734;28;20030;-77
2022/12/26 14:00:51;;;;;;;44.20;23.77;;;;;;;;;;5037462;28;20029;-77
2022/12/26 14:03:35;;;;;;;56.53;26.77;;;;;;;;;;5035873;28;20522;-77
2022/12/26 14:06:29;;;;;;;53.58;27.77;;;;;;;;;;5037231;28;20178;-77
2022/12/26 14:09:20;;;;;;;57.03;27.27;;;;;;;;;;5036970;28;20065;-77
2022/12/26 14:12:06;;;;;;;61.53;28.15;;;;;;;;;;5019359;28;20466;-77
2022/12/26 14:14:41;;;;;;;53.63;28.60;;;;;;;;;;5037242;28;20037;-76
2022/12/26 14:17:21;;;;;;;58.78;29.95;;;;;;;;;;5036983;28;20463;-76
2022/12/26 14:20:14;;;;;;;64.90;32.35;;;;;;;;;;5019118;28;20033;-77
2022/12/26 14:22:45;;;;;;;72.20;37.58;;;;;;;;;;5036809;28;20030;-77
2022/12/26 14:25:28;;;;;;;60.22;31.75;;;;;;;;;;5037074;28;20040;-78
2022/12/26 14:28:02;;;;;;;57.17;28.60;;;;;;;;;;5036303;28;20037;-77
2022/12/26 14:30:34;;;;;;;52.10;26.58;;;;;;;;;;5035266;28;20044;-77
2022/12/26 14:33:08;;;;;;;52.10;26.55;;;;;;;;;;5038660;28;20029;-77
2022/12/26 14:35:43;;;;;;;49.78;25.63;;;;;;;;;;5056804;28;20033;-77
2022/12/26 14:38:17;;;;;;;56.33;27.33;;;;;;;;;;5056784;28;20103;-76
2022/12/26 14:41:08;;;;;;;65.10;33.75;;;;;;;;;;5057112;28;20413;-77
2022/12/26 14:43:34;;;;;;;93.93;36.65;;;;;;;;;;5038596;28;20057;-77
2022/12/26 14:46:01;;;;;;;58.35;28.70;;;;;;;;;;5056719;28;20025;-77
2022/12/26 14:48:27;;;;;;;94.05;39.50;;;;;;;;;;5054833;28;20040;-76
2022/12/26 14:51:15;;;;;;;73.20;35.10;;;;;;;;;;5056134;28;20059;-76
2022/12/26 14:53:42;;;;;;;80.88;33.38;;;;;;;;;;5034101;28;20045;-76
2022/12/26 14:56:09;;;;;;;67.35;32.58;;;;;;;;;;5022108;28;20220;-76
2022/12/26 14:58:43;;;;;;;57.25;28.38;;;;;;;;;;5056625;28;20351;-77
2022/12/26 15:01:11;;;;;;;64.43;33.53;;;;;;;;;;5037650;28;20029;-77
2022/12/26 15:04:05;;;;;;;59.72;28.55;;;;;;;;;;5056245;28;20040;-77
2022/12/26 15:07:02;;;;;;;57.60;25.77;;;;;;;;;;5056312;28;20037;-77
2022/12/26 15:09:55;;;;;;;61.67;29.40;;;;;;;;;;5039743;28;20037;-77
2022/12/26 15:12:44;;;;;;;60.13;28.85;;;;;;;;;;5056148;28;20044;-78
2022/12/26 15:15:33;;;;;;;53.15;27.55;;;;;;;;;;5055962;28;20375;-77
2022/12/26 15:18:17;;;;;;;62.92;29.25;;;;;;;;;;5037620;28;20028;-77
2022/12/26 15:20:54;;;;;;;57.55;26.92;;;;;;;;;;5055705;28;20029;-77
2022/12/26 15:23:54;;;;;;;52.47;27.05;;;;;;;;;;5038345;28;20033;-77
2022/12/26 15:26:51;;;;;;;54.15;26.90;;;;;;;;;;5055778;28;20040;-77
2022/12/26 15:29:34;;;;;;;107.10;45.88;;;;;;;;;;5027601;28;20037;-76
2022/12/26 15:32:12;;;;;;;94.03;42.13;;;;;;;;;;5035620;28;20037;-77
2022/12/26 15:34:55;;;;;;;70.28;34.00;;;;;;;;;;5017933;28;20028;-77
2022/12/26 15:37:54;;;;;;;74.47;35.83;;;;;;;;;;5034554;28;20029;-77
2022/12/26 15:40:21;;;;;;;70.35;34.17;;;;;;;;;;5019927;28;20123;-77
2022/12/26 15:43:11;;;;;;;68.03;33.42;;;;;;;;;;5035449;28;20071;-77
2022/12/26 15:45:59;;;;;;;73.93;36.35;;;;;;;;;;5035305;28;20132;-77
2022/12/26 15:48:49;;;;;;;75.70;34.97;;;;;;;;;;5017846;28;20120;-78
2022/12/26 15:51:43;;;;;;;73.97;37.00;;;;;;;;;;5035632;28;20026;-77
2022/12/26 15:54:30;;;;;;;166.43;76.28;;;;;;;;;;5007013;28;20128;-78
2022/12/26 15:57:18;;;;;;;289.13;104.03;;;;;;;;;;5017740;28;20033;-77
2022/12/26 16:00:11;;;;;;;219.52;85.50;;;;;;;;;;5017093;28;20040;-77
2022/12/26 16:02:59;;;;;;;222.25;87.55;;;;;;;;;;5035101;28;20045;-77
2022/12/26 16:05:42;;;;;;;161.68;73.00;;;;;;;;;;5032897;28;20041;-77
2022/12/26 16:08:42;;;;;;;187.98;87.65;;;;;;;;;;5017860;28;20123;-77
2022/12/26 16:11:23;;;;;;;133.93;59.58;;;;;;;;;;5016495;28;20041;-77
2022/12/26 16:13:53;;;;;;;103.93;49.38;;;;;;;;;;5000761;28;20464;-77
2022/12/26 16:16:28;;;;;;;105.75;50.63;;;;;;;;;;5017439;28;20139;-77
2022/12/26 16:18:54;;;;;;;164.68;90.05;;;;;;;;;;5017291;28;20120;-77
2022/12/26 16:24:06;;;;;;;120.13;61.58;;;;;;;;;;5033661;28;20036;-77
2022/12/26 16:26:32;;;;;;;128.75;61.42;;;;;;;;;;5000768;28;20037;-77
2022/12/26 16:28:58;;;;;;;116.60;57.40;;;;;;;;;;5032730;28;20048;-77
2022/12/26 16:31:26;;;;;;;129.45;65.63;;;;;;;;;;5033339;28;20072;-76
2022/12/26 16:33:52;;;;;;;127.30;68.07;;;;;;;;;;5033821;28;20072;-77
2022/12/26 16:36:26;;;;;;;105.10;52.13;;;;;;;;;;5017048;28;20077;-77
2022/12/26 16:38:51;;;;;;;118.90;56.33;;;;;;;;;;5017171;28;20347;-77
2022/12/26 16:41:21;;;;;;;108.32;52.83;;;;;;;;;;5033193;28;20080;-76
2022/12/26 16:43:47;;;;;;;116.00;55.17;;;;;;;;;;5034244;28;20095;-77
2022/12/26 16:46:12;;;;;;;108.65;52.58;;;;;;;;;;5034265;28;20280;-77
2022/12/26 16:48:38;;;;;;;111.03;54.05;;;;;;;;;;5016684;28;20029;-77
2022/12/26 16:51:27;;;;;;;119.80;55.38;;;;;;;;;;5016749;28;20056;-77
2022/12/26 16:53:53;;;;;;;109.22;51.00;;;;;;;;;;5019177;28;20030;-77
2022/12/26 16:56:27;;;;;;;103.32;48.33;;;;;;;;;;5033238;28;20081;-77
2022/12/26 16:59:12;;;;;;;103.90;50.75;;;;;;;;;;5016695;28;20021;-78